CCA935 ZSPD-EDDF
Flight info
| Callsign | CCA935 |
|---|---|
| Flight time | N/A |
| Altitude | 36100 |
| Route | PIK81D PIKAS G330 PIMOL A593 DALIM W157 BEKDO/K0900S1130 W157 VYK G212 SOTMU/K0900S1100 B339 POLHO Y345 VIZOT/K0895S1160 Y345 UDA R372 AMUTA/K0913F380 R372 ADONI B800 KUMOD N869 UNISO L870 RANVA/N0480F380 L870 RESMO DCT TODNA DCT DEREX DCT KOLJA DCT GORPI Z80 TILAV L87 KETAP DCT PENEK DCT POVEL DCT RIMET/N0472F310 T157 KOKEB/N0424F230 T157 KERAX KERAX5A |
| Aircraft | A359/H-SDE2E3GHIJ1J3J4J5LM1ORWXY/LB1D1 |
Departure
| Time | N/A |
|---|---|
| Airport | Shanghai Pudong International Airport (ZSPD) |
Arrival
| Time | 2026-05-04 15:22 |
|---|---|
| Airport | Frankfurt Main Airport (EDDF) |
| Time | Latitude | Longitude | Altitude | Speed | Heading |
|---|---|---|---|---|---|
| 2026-05-04 13:02 | 59.41234 | 27.87460 | 37666 ft | 430 kts | 249° |
| 2026-05-04 13:02 | 59.40181 | 27.82037 | 37662 ft | 430 kts | 249° |
| 2026-05-04 13:03 | 59.38053 | 27.71077 | 37676 ft | 430 kts | 249° |
| 2026-05-04 13:03 | 59.35943 | 27.60252 | 37675 ft | 430 kts | 249° |
| 2026-05-04 13:04 | 59.33801 | 27.49350 | 37663 ft | 429 kts | 249° |
| 2026-05-04 13:04 | 59.31669 | 27.38510 | 37659 ft | 430 kts | 249° |
| 2026-05-04 13:05 | 59.29530 | 27.27608 | 37660 ft | 430 kts | 249° |
| 2026-05-04 13:05 | 59.27395 | 27.16742 | 37658 ft | 430 kts | 249° |
| 2026-05-04 13:06 | 59.25243 | 27.05856 | 37649 ft | 430 kts | 248° |
| 2026-05-04 13:06 | 59.23098 | 26.95072 | 37645 ft | 429 kts | 248° |
| 2026-05-04 13:07 | 59.20935 | 26.84244 | 37633 ft | 429 kts | 248° |
| 2026-05-04 13:07 | 59.18772 | 26.73488 | 37634 ft | 429 kts | 248° |
| 2026-05-04 13:08 | 59.16591 | 26.62694 | 37645 ft | 430 kts | 248° |
| 2026-05-04 13:08 | 59.14398 | 26.51900 | 37653 ft | 431 kts | 248° |
| 2026-05-04 13:09 | 59.12196 | 26.41122 | 37650 ft | 430 kts | 248° |
| 2026-05-04 13:09 | 59.09983 | 26.30339 | 37655 ft | 431 kts | 247° |
| 2026-05-04 13:10 | 59.07779 | 26.19639 | 37653 ft | 430 kts | 247° |
| 2026-05-04 13:10 | 59.05547 | 26.08870 | 37657 ft | 431 kts | 248° |
| 2026-05-04 13:11 | 59.03314 | 25.98160 | 37656 ft | 431 kts | 248° |
| 2026-05-04 13:11 | 59.01067 | 25.87435 | 37662 ft | 431 kts | 248° |
| 2026-05-04 13:12 | 58.98795 | 25.76654 | 37662 ft | 431 kts | 247° |
| 2026-05-04 13:12 | 58.96532 | 25.65976 | 37651 ft | 431 kts | 247° |
| 2026-05-04 13:13 | 58.94260 | 25.55319 | 37656 ft | 431 kts | 247° |
| 2026-05-04 13:13 | 58.91965 | 25.44605 | 37655 ft | 432 kts | 247° |
| 2026-05-04 13:14 | 58.89666 | 25.33923 | 37664 ft | 433 kts | 246° |
| 2026-05-04 13:14 | 58.87323 | 25.23207 | 37643 ft | 433 kts | 246° |
| 2026-05-04 13:15 | 58.84995 | 25.12569 | 37664 ft | 432 kts | 246° |
| 2026-05-04 13:15 | 58.82671 | 25.01963 | 37666 ft | 432 kts | 246° |
| 2026-05-04 13:16 | 58.80325 | 24.91301 | 37686 ft | 433 kts | 246° |
| 2026-05-04 13:16 | 58.77987 | 24.80718 | 37696 ft | 432 kts | 246° |
| 2026-05-04 13:17 | 58.75626 | 24.70086 | 37695 ft | 433 kts | 246° |
| 2026-05-04 13:17 | 58.73253 | 24.59447 | 37694 ft | 433 kts | 246° |
| 2026-05-04 13:18 | 58.70889 | 24.48903 | 37688 ft | 433 kts | 246° |
| 2026-05-04 13:18 | 58.68499 | 24.38300 | 37692 ft | 432 kts | 246° |
| 2026-05-04 13:19 | 58.66114 | 24.27758 | 37699 ft | 432 kts | 246° |
| 2026-05-04 13:19 | 58.63735 | 24.17275 | 37691 ft | 432 kts | 246° |
| 2026-05-04 13:20 | 58.61334 | 24.06758 | 37693 ft | 432 kts | 245° |
| 2026-05-04 13:20 | 58.58926 | 23.96278 | 37697 ft | 431 kts | 245° |
| 2026-05-04 13:21 | 58.56504 | 23.85795 | 37708 ft | 432 kts | 245° |
| 2026-05-04 13:21 | 58.54073 | 23.75321 | 37706 ft | 432 kts | 246° |
| 2026-05-04 13:22 | 58.51645 | 23.64904 | 37708 ft | 432 kts | 245° |
| 2026-05-04 13:22 | 58.49197 | 23.54457 | 37720 ft | 433 kts | 245° |
| 2026-05-04 13:23 | 58.46737 | 23.44017 | 37719 ft | 432 kts | 245° |
| 2026-05-04 13:23 | 58.44268 | 23.33581 | 37721 ft | 432 kts | 245° |
| 2026-05-04 13:24 | 58.41803 | 23.23187 | 37741 ft | 432 kts | 245° |
| 2026-05-04 13:24 | 58.39338 | 23.12850 | 37733 ft | 431 kts | 245° |
| 2026-05-04 13:25 | 58.35600 | 22.97287 | 37720 ft | 432 kts | 245° |
| 2026-05-04 13:25 | 58.33104 | 22.86960 | 37717 ft | 433 kts | 245° |
| 2026-05-04 13:26 | 58.30589 | 22.76606 | 37739 ft | 433 kts | 245° |
| 2026-05-04 13:26 | 58.28068 | 22.66278 | 37746 ft | 433 kts | 245° |
| 2026-05-04 13:27 | 58.25523 | 22.55896 | 37747 ft | 434 kts | 245° |
| 2026-05-04 13:27 | 58.22977 | 22.45566 | 37741 ft | 434 kts | 245° |
| 2026-05-04 13:28 | 58.20425 | 22.35249 | 37746 ft | 435 kts | 245° |
| 2026-05-04 13:28 | 58.17876 | 22.24976 | 37740 ft | 435 kts | 244° |
| 2026-05-04 13:29 | 58.15299 | 22.14641 | 37746 ft | 435 kts | 244° |
| 2026-05-04 13:29 | 58.12706 | 22.04301 | 37737 ft | 435 kts | 244° |
| 2026-05-04 13:30 | 58.10126 | 21.94060 | 37739 ft | 436 kts | 244° |
| 2026-05-04 13:30 | 58.07512 | 21.83732 | 37742 ft | 436 kts | 244° |
| 2026-05-04 13:31 | 58.04913 | 21.73500 | 37743 ft | 436 kts | 244° |
| 2026-05-04 13:31 | 58.02290 | 21.63214 | 37837 ft | 436 kts | 244° |
| 2026-05-04 13:32 | 57.99666 | 21.52942 | 37770 ft | 435 kts | 245° |
| 2026-05-04 13:32 | 57.97183 | 21.42653 | 37747 ft | 436 kts | 245° |
| 2026-05-04 13:33 | 57.94705 | 21.32324 | 37761 ft | 435 kts | 245° |
| 2026-05-04 13:33 | 57.92213 | 21.21979 | 37758 ft | 436 kts | 245° |
| 2026-05-04 13:34 | 57.89717 | 21.11686 | 37771 ft | 435 kts | 245° |
| 2026-05-04 13:34 | 57.87169 | 21.01359 | 37766 ft | 435 kts | 245° |
| 2026-05-04 13:35 | 57.83368 | 20.85958 | 37774 ft | 436 kts | 245° |
| 2026-05-04 13:36 | 57.80838 | 20.75719 | 37776 ft | 435 kts | 245° |
| 2026-05-04 13:36 | 57.78295 | 20.65463 | 37744 ft | 436 kts | 245° |
| 2026-05-04 13:37 | 57.75747 | 20.55204 | 37763 ft | 436 kts | 245° |
| 2026-05-04 13:37 | 57.73195 | 20.44973 | 37764 ft | 436 kts | 245° |
| 2026-05-04 13:38 | 57.70624 | 20.34771 | 37765 ft | 436 kts | 244° |
| 2026-05-04 13:38 | 57.67722 | 20.24901 | 37769 ft | 436 kts | 239° |
| 2026-05-04 13:39 | 57.64316 | 20.15550 | 37760 ft | 437 kts | 234° |
| 2026-05-04 13:39 | 57.60487 | 20.06865 | 37766 ft | 437 kts | 231° |
| 2026-05-04 13:40 | 57.56533 | 19.98275 | 37768 ft | 437 kts | 231° |
| 2026-05-04 13:40 | 57.52605 | 19.89768 | 37766 ft | 437 kts | 231° |
| 2026-05-04 13:41 | 57.48642 | 19.81226 | 37769 ft | 437 kts | 231° |
| 2026-05-04 13:41 | 57.44675 | 19.72715 | 37772 ft | 437 kts | 231° |
| 2026-05-04 13:42 | 57.38712 | 19.59985 | 37770 ft | 437 kts | 231° |
| 2026-05-04 13:42 | 57.34738 | 19.51538 | 37780 ft | 438 kts | 231° |
| 2026-05-04 13:43 | 57.30743 | 19.43082 | 37786 ft | 438 kts | 231° |
| 2026-05-04 13:43 | 57.26762 | 19.34682 | 37785 ft | 438 kts | 230° |
| 2026-05-04 13:44 | 57.22753 | 19.26230 | 37782 ft | 438 kts | 230° |
| 2026-05-04 13:44 | 57.18758 | 19.17843 | 37771 ft | 438 kts | 230° |
| 2026-05-04 13:45 | 57.14752 | 19.09470 | 37770 ft | 438 kts | 230° |
| 2026-05-04 13:45 | 57.10743 | 19.01128 | 37774 ft | 438 kts | 230° |
| 2026-05-04 13:46 | 57.06711 | 18.92769 | 37766 ft | 437 kts | 231° |
| 2026-05-04 13:46 | 57.02685 | 18.84455 | 37785 ft | 438 kts | 230° |
| 2026-05-04 13:47 | 56.98662 | 18.76173 | 37795 ft | 438 kts | 230° |
| 2026-05-04 13:47 | 56.94616 | 18.67874 | 37800 ft | 437 kts | 231° |
| 2026-05-04 13:48 | 56.90581 | 18.59627 | 37808 ft | 437 kts | 230° |
| 2026-05-04 13:48 | 56.86525 | 18.51411 | 37801 ft | 437 kts | 230° |
| 2026-05-04 13:49 | 56.82462 | 18.43216 | 37803 ft | 437 kts | 230° |
| 2026-05-04 13:49 | 56.78392 | 18.35007 | 37802 ft | 436 kts | 230° |
| 2026-05-04 13:50 | 56.74371 | 18.26889 | 37786 ft | 437 kts | 230° |
| 2026-05-04 13:50 | 56.70309 | 18.18709 | 37793 ft | 436 kts | 230° |
| 2026-05-04 13:51 | 56.66246 | 18.10571 | 37797 ft | 437 kts | 230° |
| 2026-05-04 13:51 | 56.62180 | 18.02460 | 37794 ft | 436 kts | 230° |
| 2026-05-04 13:52 | 56.56084 | 17.90348 | 37794 ft | 435 kts | 230° |
| 2026-05-04 13:53 | 56.51998 | 17.82264 | 37799 ft | 436 kts | 230° |
| 2026-05-04 13:53 | 56.47928 | 17.74242 | 37808 ft | 436 kts | 230° |
| 2026-05-04 13:54 | 56.41794 | 17.62199 | 37797 ft | 436 kts | 230° |
| 2026-05-04 13:55 | 56.35645 | 17.50191 | 37800 ft | 436 kts | 230° |
| 2026-05-04 13:55 | 56.29495 | 17.38242 | 37807 ft | 436 kts | 230° |
| 2026-05-04 13:56 | 56.25381 | 17.30265 | 37805 ft | 436 kts | 229° |
| 2026-05-04 13:57 | 56.19218 | 17.18352 | 37821 ft | 436 kts | 229° |
| 2026-05-04 13:58 | 56.10965 | 17.02511 | 37830 ft | 436 kts | 229° |
| 2026-05-04 13:58 | 56.04755 | 16.90730 | 37833 ft | 436 kts | 227° |
| 2026-05-04 13:59 | 56.00286 | 16.83419 | 37834 ft | 439 kts | 223° |
| 2026-05-04 14:00 | 55.92852 | 16.73896 | 37840 ft | 443 kts | 215° |
| 2026-05-04 14:00 | 55.85021 | 16.65327 | 37927 ft | 442 kts | 215° |
| 2026-05-04 14:01 | 55.79807 | 16.59623 | 37879 ft | 440 kts | 215° |
| 2026-05-04 14:02 | 55.72030 | 16.51145 | 37875 ft | 440 kts | 215° |
| 2026-05-04 14:02 | 55.66812 | 16.45474 | 37878 ft | 440 kts | 215° |
| 2026-05-04 14:03 | 55.61639 | 16.39870 | 37883 ft | 440 kts | 215° |
| 2026-05-04 14:03 | 55.56427 | 16.34244 | 37888 ft | 440 kts | 214° |
| 2026-05-04 14:04 | 55.48611 | 16.25799 | 37889 ft | 440 kts | 214° |
| 2026-05-04 14:04 | 55.43428 | 16.20230 | 37888 ft | 440 kts | 214° |
| 2026-05-04 14:05 | 55.35586 | 16.11857 | 37797 ft | 441 kts | 214° |
| 2026-05-04 14:06 | 55.30371 | 16.06311 | 37885 ft | 441 kts | 214° |
| 2026-05-04 14:06 | 55.25155 | 16.00782 | 37896 ft | 441 kts | 214° |
| 2026-05-04 14:07 | 55.19897 | 15.95225 | 37913 ft | 440 kts | 214° |
| 2026-05-04 14:07 | 55.14699 | 15.89745 | 37914 ft | 441 kts | 214° |
| 2026-05-04 14:08 | 55.09455 | 15.84231 | 37922 ft | 440 kts | 214° |
| 2026-05-04 14:08 | 55.04236 | 15.78758 | 37910 ft | 440 kts | 214° |
| 2026-05-04 14:09 | 54.96391 | 15.70560 | 37911 ft | 440 kts | 214° |
| 2026-05-04 14:10 | 54.88737 | 15.61807 | 37927 ft | 438 kts | 220° |
| 2026-05-04 14:10 | 54.83897 | 15.55424 | 37930 ft | 439 kts | 220° |
| 2026-05-04 14:11 | 54.79047 | 15.49061 | 37927 ft | 439 kts | 220° |
| 2026-05-04 14:11 | 54.71766 | 15.39483 | 37929 ft | 441 kts | 220° |
| 2026-05-04 14:12 | 54.66912 | 15.33108 | 37933 ft | 442 kts | 220° |
| 2026-05-04 14:13 | 54.59623 | 15.23528 | 37929 ft | 442 kts | 219° |
| 2026-05-04 14:13 | 54.54735 | 15.17140 | 37954 ft | 442 kts | 219° |
| 2026-05-04 14:14 | 54.49833 | 15.10763 | 37921 ft | 443 kts | 219° |
| 2026-05-04 14:14 | 54.42249 | 15.01683 | 37937 ft | 446 kts | 214° |
| 2026-05-04 14:15 | 54.31098 | 14.92273 | 37937 ft | 449 kts | 208° |
| 2026-05-04 14:16 | 54.22586 | 14.85781 | 37953 ft | 452 kts | 207° |
| 2026-05-04 14:17 | 54.13975 | 14.79342 | 37973 ft | 451 kts | 207° |
| 2026-05-04 14:18 | 54.05359 | 14.72906 | 37955 ft | 452 kts | 207° |
| 2026-05-04 14:19 | 53.93864 | 14.64355 | 37958 ft | 452 kts | 207° |
| 2026-05-04 14:19 | 53.88126 | 14.60111 | 37966 ft | 452 kts | 207° |
| 2026-05-04 14:20 | 53.82378 | 14.55886 | 37957 ft | 452 kts | 207° |
| 2026-05-04 14:20 | 53.76668 | 14.51689 | 37960 ft | 451 kts | 207° |
| 2026-05-04 14:21 | 53.68038 | 14.45341 | 37960 ft | 452 kts | 207° |
| 2026-05-04 14:21 | 53.62292 | 14.41121 | 37960 ft | 452 kts | 207° |
| 2026-05-04 14:22 | 53.56572 | 14.36925 | 37956 ft | 451 kts | 208° |
| 2026-05-04 14:22 | 53.51009 | 14.32128 | 37962 ft | 449 kts | 213° |
| 2026-05-04 14:23 | 53.43340 | 14.23384 | 37956 ft | 445 kts | 220° |
| 2026-05-04 14:24 | 53.38430 | 14.17143 | 37955 ft | 446 kts | 220° |
| 2026-05-04 14:24 | 53.33512 | 14.10927 | 37950 ft | 446 kts | 220° |
| 2026-05-04 14:25 | 53.28574 | 14.04699 | 37945 ft | 445 kts | 220° |
| 2026-05-04 14:25 | 53.21162 | 13.95388 | 37941 ft | 445 kts | 220° |
| 2026-05-04 14:26 | 53.16114 | 13.89506 | 37947 ft | 446 kts | 216° |
| 2026-05-04 14:26 | 53.10832 | 13.84103 | 37947 ft | 447 kts | 216° |
| 2026-05-04 14:27 | 53.05559 | 13.78651 | 37939 ft | 447 kts | 215° |
| 2026-05-04 14:27 | 53.00308 | 13.73259 | 37938 ft | 447 kts | 216° |
| 2026-05-04 14:28 | 52.95251 | 13.67350 | 37928 ft | 445 kts | 221° |
| 2026-05-04 14:28 | 52.90614 | 13.60748 | 37962 ft | 442 kts | 226° |
| 2026-05-04 14:29 | 52.82468 | 13.45992 | 37952 ft | 441 kts | 231° |
| 2026-05-04 14:30 | 52.78484 | 13.38380 | 37952 ft | 441 kts | 232° |
| 2026-05-04 14:31 | 52.72501 | 13.26935 | 37957 ft | 440 kts | 231° |
| 2026-05-04 14:32 | 52.64518 | 13.11728 | 37975 ft | 441 kts | 231° |
| 2026-05-04 14:32 | 52.60493 | 13.04103 | 37964 ft | 440 kts | 231° |
| 2026-05-04 14:33 | 52.56498 | 12.96553 | 37959 ft | 440 kts | 231° |
| 2026-05-04 14:33 | 52.52478 | 12.88970 | 37957 ft | 440 kts | 231° |
| 2026-05-04 14:34 | 52.48490 | 12.81479 | 37964 ft | 440 kts | 231° |
| 2026-05-04 14:34 | 52.44591 | 12.73803 | 37958 ft | 439 kts | 235° |
| 2026-05-04 14:35 | 52.41306 | 12.65426 | 37964 ft | 437 kts | 243° |
| 2026-05-04 14:35 | 52.38768 | 12.56481 | 37948 ft | 436 kts | 250° |
| 2026-05-04 14:36 | 52.36980 | 12.47021 | 37939 ft | 436 kts | 257° |
| 2026-05-04 14:36 | 52.35617 | 12.37416 | 37945 ft | 436 kts | 257° |
| 2026-05-04 14:37 | 52.34269 | 12.27841 | 37945 ft | 435 kts | 256° |
| 2026-05-04 14:37 | 52.32912 | 12.18266 | 37943 ft | 435 kts | 256° |
| 2026-05-04 14:38 | 52.31543 | 12.08668 | 37938 ft | 435 kts | 256° |
| 2026-05-04 14:38 | 52.30165 | 11.99088 | 37948 ft | 435 kts | 256° |
| 2026-05-04 14:39 | 52.28782 | 11.89522 | 37936 ft | 435 kts | 256° |
| 2026-05-04 14:39 | 52.27385 | 11.79933 | 37939 ft | 435 kts | 256° |
| 2026-05-04 14:40 | 52.25281 | 11.65588 | 37927 ft | 435 kts | 256° |
| 2026-05-04 14:40 | 52.24582 | 11.60854 | 37736 ft | 436 kts | 256° |
| 2026-05-04 14:40 | 52.23875 | 11.56081 | 37439 ft | 433 kts | 256° |
| 2026-05-04 14:41 | 52.23166 | 11.51315 | 37111 ft | 429 kts | 256° |
| 2026-05-04 14:41 | 52.22472 | 11.46647 | 36827 ft | 426 kts | 256° |
| 2026-05-04 14:41 | 52.21069 | 11.37270 | 36330 ft | 424 kts | 256° |
| 2026-05-04 14:42 | 52.19683 | 11.28031 | 35883 ft | 424 kts | 255° |
| 2026-05-04 14:42 | 52.18980 | 11.23360 | 35656 ft | 424 kts | 255° |
| 2026-05-04 14:42 | 52.18274 | 11.18690 | 35412 ft | 424 kts | 255° |
| 2026-05-04 14:43 | 52.17572 | 11.14057 | 35191 ft | 424 kts | 255° |
| 2026-05-04 14:43 | 52.16872 | 11.09441 | 34953 ft | 423 kts | 255° |
| 2026-05-04 14:43 | 52.16163 | 11.04773 | 34711 ft | 423 kts | 255° |
| 2026-05-04 14:43 | 52.15459 | 11.00173 | 34455 ft | 423 kts | 255° |
| 2026-05-04 14:44 | 52.14691 | 10.95608 | 34179 ft | 423 kts | 250° |
| 2026-05-04 14:44 | 52.13532 | 10.91221 | 33921 ft | 424 kts | 243° |
| 2026-05-04 14:44 | 52.11990 | 10.87121 | 33660 ft | 425 kts | 236° |
| 2026-05-04 14:44 | 52.10104 | 10.83414 | 33399 ft | 428 kts | 228° |
| 2026-05-04 14:45 | 52.07907 | 10.80165 | 33135 ft | 431 kts | 221° |
| 2026-05-04 14:45 | 52.05426 | 10.77438 | 32873 ft | 434 kts | 213° |
| 2026-05-04 14:45 | 52.02757 | 10.75210 | 32612 ft | 437 kts | 210° |
| 2026-05-04 14:45 | 52.00000 | 10.73037 | 32338 ft | 438 kts | 210° |
| 2026-05-04 14:46 | 51.97277 | 10.70917 | 32074 ft | 439 kts | 210° |
| 2026-05-04 14:46 | 51.94526 | 10.68783 | 31808 ft | 440 kts | 210° |
| 2026-05-04 14:46 | 51.91797 | 10.66670 | 31542 ft | 440 kts | 210° |
| 2026-05-04 14:46 | 51.89022 | 10.64525 | 31271 ft | 441 kts | 209° |
| 2026-05-04 14:47 | 51.86279 | 10.62419 | 31001 ft | 442 kts | 209° |
| 2026-05-04 14:47 | 51.83500 | 10.60288 | 30730 ft | 443 kts | 209° |
| 2026-05-04 14:47 | 51.80730 | 10.58162 | 30459 ft | 444 kts | 209° |
| 2026-05-04 14:47 | 51.77922 | 10.56006 | 30150 ft | 445 kts | 209° |
| 2026-05-04 14:48 | 51.75157 | 10.53884 | 29790 ft | 447 kts | 209° |
| 2026-05-04 14:48 | 51.72320 | 10.51708 | 29424 ft | 448 kts | 209° |
| 2026-05-04 14:48 | 51.69514 | 10.49557 | 29065 ft | 449 kts | 208° |
| 2026-05-04 14:48 | 51.66726 | 10.47423 | 28716 ft | 451 kts | 208° |
| 2026-05-04 14:49 | 51.63889 | 10.45255 | 28362 ft | 453 kts | 208° |
| 2026-05-04 14:49 | 51.61064 | 10.43098 | 28007 ft | 451 kts | 208° |
| 2026-05-04 14:49 | 51.58252 | 10.40953 | 27652 ft | 449 kts | 208° |
| 2026-05-04 14:49 | 51.55419 | 10.38795 | 27300 ft | 447 kts | 208° |
| 2026-05-04 14:50 | 51.52645 | 10.36683 | 26953 ft | 446 kts | 208° |
| 2026-05-04 14:50 | 51.49821 | 10.34530 | 26600 ft | 444 kts | 207° |
| 2026-05-04 14:50 | 51.47069 | 10.32424 | 26247 ft | 443 kts | 207° |
| 2026-05-04 14:50 | 51.44297 | 10.30302 | 25899 ft | 442 kts | 207° |
| 2026-05-04 14:51 | 51.41542 | 10.28206 | 25555 ft | 440 kts | 207° |
| 2026-05-04 14:51 | 51.38791 | 10.26126 | 25208 ft | 437 kts | 207° |
| 2026-05-04 14:51 | 51.36015 | 10.24190 | 24842 ft | 438 kts | 202° |
| 2026-05-04 14:51 | 51.33080 | 10.22830 | 24489 ft | 439 kts | 194° |
| 2026-05-04 14:52 | 51.30087 | 10.22104 | 24140 ft | 440 kts | 187° |
| 2026-05-04 14:52 | 51.27013 | 10.21909 | 23788 ft | 440 kts | 184° |
| 2026-05-04 14:52 | 51.24001 | 10.21831 | 23446 ft | 439 kts | 184° |
| 2026-05-04 14:52 | 51.20938 | 10.21772 | 23097 ft | 437 kts | 183° |
| 2026-05-04 14:53 | 51.17936 | 10.21717 | 22759 ft | 435 kts | 183° |
| 2026-05-04 14:53 | 51.14912 | 10.21657 | 22410 ft | 432 kts | 183° |
| 2026-05-04 14:53 | 51.11932 | 10.21603 | 22057 ft | 430 kts | 183° |
| 2026-05-04 14:53 | 51.08965 | 10.21558 | 21719 ft | 428 kts | 183° |
| 2026-05-04 14:54 | 51.05991 | 10.21510 | 21377 ft | 426 kts | 183° |
| 2026-05-04 14:54 | 51.03026 | 10.21459 | 21038 ft | 424 kts | 183° |
| 2026-05-04 14:54 | 51.00087 | 10.21404 | 20696 ft | 423 kts | 183° |
| 2026-05-04 14:54 | 50.97164 | 10.21345 | 20359 ft | 421 kts | 183° |
| 2026-05-04 14:55 | 50.94258 | 10.21287 | 20025 ft | 419 kts | 183° |
| 2026-05-04 14:55 | 50.91338 | 10.21231 | 19689 ft | 417 kts | 182° |
| 2026-05-04 14:55 | 50.88464 | 10.21119 | 19354 ft | 414 kts | 187° |
| 2026-05-04 14:55 | 50.85726 | 10.19882 | 18995 ft | 407 kts | 208° |
| 2026-05-04 14:56 | 50.83460 | 10.17316 | 18624 ft | 404 kts | 224° |
| 2026-05-04 14:56 | 50.81518 | 10.14112 | 18250 ft | 403 kts | 227° |
| 2026-05-04 14:56 | 50.79616 | 10.10897 | 17872 ft | 401 kts | 227° |
| 2026-05-04 14:56 | 50.77720 | 10.07712 | 17505 ft | 399 kts | 226° |
| 2026-05-04 14:57 | 50.75814 | 10.04539 | 17128 ft | 397 kts | 226° |
| 2026-05-04 14:57 | 50.73919 | 10.01409 | 16755 ft | 395 kts | 226° |
| 2026-05-04 14:57 | 50.72038 | 9.98317 | 16386 ft | 393 kts | 226° |
| 2026-05-04 14:57 | 50.70135 | 9.95200 | 16015 ft | 391 kts | 226° |
| 2026-05-04 14:58 | 50.68279 | 9.92167 | 15650 ft | 389 kts | 226° |
| 2026-05-04 14:58 | 50.66399 | 9.89100 | 15276 ft | 386 kts | 226° |
| 2026-05-04 14:58 | 50.64543 | 9.86074 | 14906 ft | 384 kts | 226° |
| 2026-05-04 14:58 | 50.62709 | 9.83089 | 14496 ft | 382 kts | 226° |
| 2026-05-04 14:59 | 50.60869 | 9.80097 | 14070 ft | 379 kts | 226° |
| 2026-05-04 14:59 | 50.59042 | 9.77129 | 13642 ft | 377 kts | 226° |
| 2026-05-04 14:59 | 50.55424 | 9.71260 | 12803 ft | 373 kts | 226° |
| 2026-05-04 15:00 | 50.53612 | 9.68329 | 12381 ft | 370 kts | 225° |
| 2026-05-04 15:00 | 50.51843 | 9.65472 | 11966 ft | 362 kts | 225° |
| 2026-05-04 15:00 | 50.50133 | 9.62645 | 11598 ft | 354 kts | 229° |
| 2026-05-04 15:01 | 50.47447 | 9.56419 | 10975 ft | 336 kts | 242° |
| 2026-05-04 15:01 | 50.46521 | 9.53188 | 10940 ft | 321 kts | 248° |
| 2026-05-04 15:01 | 50.45824 | 9.49942 | 10939 ft | 304 kts | 249° |
| 2026-05-04 15:01 | 50.44848 | 9.47197 | 10930 ft | 285 kts | 226° |
| 2026-05-04 15:02 | 50.43366 | 9.45181 | 10735 ft | 280 kts | 217° |
| 2026-05-04 15:02 | 50.41786 | 9.43400 | 10486 ft | 278 kts | 215° |
| 2026-05-04 15:02 | 50.40206 | 9.41678 | 10241 ft | 278 kts | 214° |
| 2026-05-04 15:02 | 50.38623 | 9.39958 | 9991 ft | 277 kts | 214° |
| 2026-05-04 15:03 | 50.37032 | 9.38227 | 9618 ft | 278 kts | 214° |
| 2026-05-04 15:03 | 50.35469 | 9.36529 | 9252 ft | 278 kts | 214° |
| 2026-05-04 15:03 | 50.33876 | 9.34802 | 8874 ft | 277 kts | 214° |
| 2026-05-04 15:03 | 50.32288 | 9.33076 | 8495 ft | 277 kts | 214° |
| 2026-05-04 15:04 | 50.30719 | 9.31377 | 8126 ft | 276 kts | 214° |
| 2026-05-04 15:04 | 50.29143 | 9.29675 | 7752 ft | 276 kts | 214° |
| 2026-05-04 15:04 | 50.27565 | 9.27982 | 7377 ft | 276 kts | 214° |
| 2026-05-04 15:04 | 50.25991 | 9.26302 | 7026 ft | 275 kts | 214° |
| 2026-05-04 15:05 | 50.24437 | 9.24650 | 6941 ft | 265 kts | 214° |
| 2026-05-04 15:05 | 50.22951 | 9.23075 | 6933 ft | 251 kts | 214° |
| 2026-05-04 15:05 | 50.21703 | 9.21297 | 6895 ft | 238 kts | 239° |
| 2026-05-04 15:05 | 50.21062 | 9.18949 | 6928 ft | 237 kts | 248° |
| 2026-05-04 15:06 | 50.20450 | 9.16576 | 6928 ft | 238 kts | 246° |
| 2026-05-04 15:06 | 50.19805 | 9.14183 | 6929 ft | 238 kts | 246° |
| 2026-05-04 15:06 | 50.19158 | 9.11846 | 6929 ft | 238 kts | 245° |
| 2026-05-04 15:07 | 50.17819 | 9.07120 | 6879 ft | 240 kts | 245° |
| 2026-05-04 15:07 | 50.17132 | 9.04724 | 6615 ft | 239 kts | 245° |
| 2026-05-04 15:07 | 50.16463 | 9.02401 | 6375 ft | 237 kts | 245° |
| 2026-05-04 15:07 | 50.15788 | 9.00058 | 6128 ft | 236 kts | 245° |
| 2026-05-04 15:08 | 50.15118 | 8.97727 | 5891 ft | 235 kts | 245° |
| 2026-05-04 15:08 | 50.14455 | 8.95415 | 5648 ft | 233 kts | 246° |
| 2026-05-04 15:08 | 50.13806 | 8.93101 | 5395 ft | 232 kts | 246° |
| 2026-05-04 15:08 | 50.13159 | 8.90794 | 5159 ft | 231 kts | 246° |
| 2026-05-04 15:09 | 50.12525 | 8.88543 | 5004 ft | 226 kts | 246° |
| 2026-05-04 15:09 | 50.11909 | 8.86364 | 4982 ft | 214 kts | 246° |
| 2026-05-04 15:09 | 50.11325 | 8.84304 | 4979 ft | 202 kts | 246° |
| 2026-05-04 15:10 | 50.11111 | 8.80419 | 4957 ft | 180 kts | 306° |
| 2026-05-04 15:10 | 50.12009 | 8.79040 | 4985 ft | 184 kts | 321° |
| 2026-05-04 15:10 | 50.14095 | 8.76715 | 4988 ft | 184 kts | 324° |
| 2026-05-04 15:11 | 50.15152 | 8.75589 | 4992 ft | 184 kts | 324° |
| 2026-05-04 15:11 | 50.16211 | 8.74467 | 4997 ft | 184 kts | 324° |
| 2026-05-04 15:11 | 50.17329 | 8.73476 | 4979 ft | 185 kts | 346° |
| 2026-05-04 15:11 | 50.18568 | 8.73646 | 4991 ft | 185 kts | 28° |
| 2026-05-04 15:12 | 50.19460 | 8.75047 | 5006 ft | 185 kts | 64° |
| 2026-05-04 15:12 | 50.19955 | 8.76924 | 5011 ft | 188 kts | 72° |
| 2026-05-04 15:12 | 50.20358 | 8.78871 | 5002 ft | 189 kts | 73° |
| 2026-05-04 15:12 | 50.20739 | 8.80827 | 4997 ft | 188 kts | 74° |
| 2026-05-04 15:13 | 50.21114 | 8.82782 | 4992 ft | 188 kts | 74° |
| 2026-05-04 15:13 | 50.21487 | 8.84741 | 4987 ft | 188 kts | 74° |
| 2026-05-04 15:13 | 50.21853 | 8.86680 | 4983 ft | 188 kts | 76° |
| 2026-05-04 15:13 | 50.21888 | 8.88676 | 4954 ft | 184 kts | 113° |
| 2026-05-04 15:14 | 50.21122 | 8.90183 | 4979 ft | 179 kts | 152° |
| 2026-05-04 15:14 | 50.19981 | 8.91007 | 4998 ft | 181 kts | 161° |
| 2026-05-04 15:14 | 50.18794 | 8.91645 | 4987 ft | 182 kts | 163° |
| 2026-05-04 15:14 | 50.17585 | 8.92249 | 4981 ft | 181 kts | 164° |
| 2026-05-04 15:15 | 50.16382 | 8.92839 | 4982 ft | 182 kts | 164° |
| 2026-05-04 15:15 | 50.15149 | 8.93299 | 4962 ft | 180 kts | 182° |
| 2026-05-04 15:15 | 50.13995 | 8.92759 | 4955 ft | 175 kts | 223° |
| 2026-05-04 15:16 | 50.12993 | 8.89342 | 4961 ft | 179 kts | 255° |
| 2026-05-04 15:16 | 50.12672 | 8.87479 | 4771 ft | 179 kts | 254° |
| 2026-05-04 15:16 | 50.11910 | 8.83769 | 4299 ft | 181 kts | 251° |
| 2026-05-04 15:17 | 50.11490 | 8.81943 | 4091 ft | 179 kts | 250° |
| 2026-05-04 15:17 | 50.10628 | 8.78360 | 3618 ft | 175 kts | 249° |
| 2026-05-04 15:17 | 50.10196 | 8.76595 | 3373 ft | 175 kts | 249° |
| 2026-05-04 15:18 | 50.09764 | 8.74829 | 3137 ft | 175 kts | 249° |
| 2026-05-04 15:18 | 50.09333 | 8.73065 | 2905 ft | 174 kts | 250° |
| 2026-05-04 15:18 | 50.08908 | 8.71316 | 2678 ft | 173 kts | 250° |
| 2026-05-04 15:19 | 50.08060 | 8.67823 | 2242 ft | 172 kts | 250° |
| 2026-05-04 15:19 | 50.07643 | 8.66095 | 2023 ft | 170 kts | 250° |
| 2026-05-04 15:19 | 50.06821 | 8.62678 | 1605 ft | 171 kts | 249° |
| 2026-05-04 15:20 | 50.06393 | 8.60916 | 1368 ft | 170 kts | 250° |
| 2026-05-04 15:20 | 50.06001 | 8.59280 | 1149 ft | 156 kts | 248° |
| 2026-05-04 15:20 | 50.05637 | 8.57766 | 953 ft | 142 kts | 249° |
| 2026-05-04 15:20 | 50.05297 | 8.56359 | 756 ft | 137 kts | 249° |
| 2026-05-04 15:21 | 50.04962 | 8.54963 | 612 ft | 137 kts | 248° |
| 2026-05-04 15:21 | 50.04636 | 8.53593 | 434 ft | 135 kts | 248° |
| 2026-05-04 15:21 | 50.04054 | 8.51185 | 369 ft | 83 kts | 252° |
| 2026-05-04 15:22 | 50.03912 | 8.50574 | 356 ft | 37 kts | 246° |
| 2026-05-04 15:22 | 50.03849 | 8.50406 | 353 ft | 12 kts | 232° |
| 2026-05-04 15:22 | 50.03717 | 8.50209 | 347 ft | 9 kts | 218° |
| 2026-05-04 15:23 | 50.03657 | 8.50189 | 347 ft | 8 kts | 167° |
| 2026-05-04 15:23 | 50.03627 | 8.50251 | 348 ft | 8 kts | 89° |
| 2026-05-04 15:23 | 50.03641 | 8.50337 | 350 ft | 7 kts | 71° |
| 2026-05-04 15:23 | 50.03659 | 8.50411 | 352 ft | 6 kts | 69° |
| 2026-05-04 15:24 | 50.03679 | 8.50491 | 356 ft | 2 kts | 70° |
| 2026-05-04 15:24 | 50.03715 | 8.50647 | 359 ft | 9 kts | 71° |
| 2026-05-04 15:25 | 50.03737 | 8.50739 | 361 ft | 9 kts | 70° |
| 2026-05-04 15:25 | 50.03759 | 8.50830 | 363 ft | 8 kts | 70° |
| 2026-05-04 15:25 | 50.03780 | 8.50916 | 365 ft | 8 kts | 70° |
| 2026-05-04 15:26 | 50.03823 | 8.51091 | 366 ft | 8 kts | 69° |
| 2026-05-04 15:26 | 50.03844 | 8.51181 | 366 ft | 10 kts | 71° |
| 2026-05-04 15:26 | 50.03915 | 8.51481 | 367 ft | 19 kts | 70° |
| 2026-05-04 15:27 | 50.03967 | 8.51701 | 366 ft | 23 kts | 69° |
| 2026-05-04 15:27 | 50.04082 | 8.52181 | 364 ft | 23 kts | 69° |
| 2026-05-04 15:28 | 50.04185 | 8.52612 | 367 ft | 20 kts | 71° |
| 2026-05-04 15:28 | 50.04235 | 8.52819 | 366 ft | 20 kts | 70° |
| 2026-05-04 15:28 | 50.04342 | 8.53266 | 360 ft | 22 kts | 70° |
| 2026-05-04 15:29 | 50.04393 | 8.53497 | 360 ft | 22 kts | 78° |
| 2026-05-04 15:30 | 50.04452 | 8.54355 | 363 ft | 18 kts | 85° |
| 2026-05-04 15:30 | 50.04246 | 8.54812 | 359 ft | 18 kts | 160° |
| 2026-05-04 15:31 | 50.03998 | 8.54954 | 356 ft | 19 kts | 159° |
| 2026-05-04 15:31 | 50.03898 | 8.55012 | 354 ft | 8 kts | 160° |
| 2026-05-04 15:32 | 50.03864 | 8.55169 | 356 ft | 5 kts | 73° |
| 2026-05-04 15:32 | 50.03905 | 8.55348 | 357 ft | 12 kts | 70° |
| 2026-05-04 15:33 | 50.03966 | 8.55602 | 358 ft | 11 kts | 70° |
| 2026-05-04 15:34 | 50.04047 | 8.55942 | 360 ft | 9 kts | 70° |
| 2026-05-04 15:34 | 50.04075 | 8.56059 | 361 ft | 14 kts | 70° |
| 2026-05-04 15:34 | 50.04149 | 8.56370 | 365 ft | 14 kts | 70° |
| 2026-05-04 15:35 | 50.04216 | 8.56653 | 368 ft | 15 kts | 70° |
| 2026-05-04 15:35 | 50.04254 | 8.56808 | 372 ft | 14 kts | 69° |
| 2026-05-04 15:35 | 50.04290 | 8.56958 | 374 ft | 15 kts | 71° |
| 2026-05-04 15:36 | 50.04376 | 8.57323 | 376 ft | 20 kts | 70° |
| 2026-05-04 15:36 | 50.04429 | 8.57538 | 374 ft | 21 kts | 70° |
| 2026-05-04 15:36 | 50.04476 | 8.57753 | 377 ft | 19 kts | 72° |
| 2026-05-04 15:37 | 50.04520 | 8.57928 | 380 ft | 9 kts | 68° |
| 2026-05-04 15:37 | 50.04543 | 8.58000 | 382 ft | 5 kts | 49° |
| 2026-05-04 15:37 | 50.04575 | 8.58022 | 382 ft | 4 kts | 4° |
| 2026-05-04 15:37 | 50.04608 | 8.58014 | 382 ft | 6 kts | 344° |
| 2026-05-04 15:38 | 50.04659 | 8.57987 | 382 ft | 8 kts | 340° |
| 2026-05-04 15:38 | 50.04715 | 8.57956 | 382 ft | 8 kts | 340° |
| 2026-05-04 15:38 | 50.04762 | 8.57924 | 382 ft | 6 kts | 322° |
| 2026-05-04 15:38 | 50.04771 | 8.57869 | 381 ft | 6 kts | 253° |
| 2026-05-04 15:39 | 50.04764 | 8.57794 | 381 ft | 7 kts | 268° |
| 2026-05-04 15:39 | 50.04763 | 8.57755 | 381 ft | 2 kts | 270° |
| 2026-05-04 15:39 | 50.04763 | 8.57741 | 381 ft | 0 kts | 270° |
| 2026-05-04 15:41 | 50.04764 | 8.57736 | 380 ft | 0 kts | 270° |
| 2026-05-04 15:41 | 50.04763 | 8.57754 | 381 ft | 0 kts | 270° |
| 2026-05-04 15:42 | 50.04763 | 8.57746 | 381 ft | 0 kts | 270° |
| 2026-05-04 15:42 | 50.04763 | 8.57741 | 381 ft | 0 kts | 270° |
| 2026-05-04 15:46 | 50.04763 | 8.57740 | 381 ft | 0 kts | 270° |